Terminal Aerodrome Forecast
Issued by NWS Wilmington, OH

Current Version | Previous Version | Graphics & Text | Print | Product List | Glossary On
Versions: 1 2 3 4 5 6 7 8 9 10 11 12 13 14 15 16 17 18 19 20 21 22 23 24 25 26 27 28 29
000
FTUS41 KILN 152300
TAFCVG
TAF
KCVG 152339Z 1600/1706 16010KT P6SM VCSH BKN035 OVC080
     FM160400 16010KT P6SM VCSH OVC022
     FM160700 19010KT P6SM OVC015
      TEMPO 1607/1610 -SHRA
     FM161100 23011KT P6SM OVC012
     FM161500 24012G20KT P6SM VCSH OVC015
     FM161900 25012G20KT P6SM OVC015
     FM170000 27010KT P6SM OVC015=

USA.gov is the U.S. government's official web portal to all federal, state and local government web resources and services.